createdAt,value
2022-10-14T00:00:41.498Z,26.65
2022-10-14T00:03:08.434Z,29.38
2022-10-14T00:05:35.103Z,25.52
2022-10-14T00:08:01.532Z,25.80
2022-10-14T00:10:28.265Z,29.88
2022-10-14T00:12:54.691Z,26.17
2022-10-14T00:15:21.136Z,32.30
2022-10-14T00:17:47.635Z,29.52
2022-10-14T00:20:13.986Z,29.42
2022-10-14T00:22:40.420Z,30.77
2022-10-14T00:25:07.074Z,40.33
2022-10-14T00:27:33.435Z,33.13
2022-10-14T00:29:59.804Z,46.20
2022-10-14T00:32:26.188Z,36.78
2022-10-14T00:34:52.572Z,33.65
2022-10-14T00:37:19.409Z,41.33
2022-10-14T00:39:45.946Z,37.28
2022-10-14T00:42:15.705Z,39.60
2022-10-14T00:44:50.735Z,36.90
2022-10-14T00:47:17.083Z,37.88
2022-10-14T00:49:44.243Z,41.30
2022-10-14T00:52:17.944Z,38.65
2022-10-14T00:54:48.063Z,43.65
2022-10-14T00:57:14.672Z,45.38
2022-10-14T00:59:41.412Z,39.75
2022-10-14T01:02:08.005Z,42.15
2022-10-14T01:04:35.809Z,40.53
2022-10-14T01:07:11.566Z,36.97
2022-10-14T01:10:05.556Z,37.70
2022-10-14T01:12:50.498Z,33.42
2022-10-14T01:15:32.876Z,33.90
2022-10-14T01:18:20.232Z,36.72
2022-10-14T01:21:12.805Z,33.60
2022-10-14T01:24:05.421Z,32.63
2022-10-14T01:26:59.818Z,29.30
2022-10-14T01:30:00.972Z,30.88
2022-10-14T01:32:30.637Z,29.65
2022-10-14T01:35:09.798Z,29.95
2022-10-14T01:37:38.335Z,27.92
2022-10-14T01:40:11.875Z,23.95
2022-10-14T01:42:40.220Z,26.67
2022-10-14T01:45:14.514Z,24.02
2022-10-14T01:50:11.784Z,22.45
2022-10-14T01:52:45.215Z,29.83
2022-10-14T01:55:15.659Z,23.67
2022-10-14T01:57:43.330Z,22.90
2022-10-14T02:00:11.267Z,27.65
2022-10-14T02:02:39.093Z,26.42
2022-10-14T02:05:13.752Z,27.75
2022-10-14T02:07:45.877Z,24.52
2022-10-14T02:10:18.262Z,26.02
2022-10-14T02:12:54.691Z,27.13
2022-10-14T02:15:50.323Z,23.83
2022-10-14T02:18:27.360Z,26.85
2022-10-14T02:21:07.815Z,28.00
2022-10-14T02:23:39.614Z,27.20
2022-10-14T02:26:06.303Z,25.83
2022-10-14T02:28:33.452Z,27.45
2022-10-14T02:31:08.806Z,24.35
2022-10-14T02:33:39.280Z,24.25
2022-10-14T02:36:07.647Z,26.42
2022-10-14T02:38:34.155Z,27.08
2022-10-14T02:41:03.507Z,26.40
2022-10-14T02:43:30.114Z,26.30
2022-10-14T02:45:59.085Z,28.85
2022-10-14T02:48:25.503Z,24.52
2022-10-14T02:50:51.837Z,24.42
2022-10-14T02:53:18.141Z,23.80
2022-10-14T02:55:44.597Z,24.70
2022-10-14T02:58:10.912Z,32.03
2022-10-14T03:00:37.438Z,25.58
2022-10-14T03:03:03.957Z,25.08
2022-10-14T03:05:30.297Z,30.15
2022-10-14T03:07:56.616Z,26.63
2022-10-14T03:10:22.944Z,24.92
2022-10-14T03:12:49.263Z,24.40
2022-10-14T03:15:16.171Z,30.55
2022-10-14T03:17:42.507Z,25.70
2022-10-14T03:20:09.254Z,25.73
2022-10-14T03:22:35.666Z,28.65
2022-10-14T03:25:02.348Z,26.58
2022-10-14T03:27:28.886Z,29.48
2022-10-14T03:29:55.226Z,25.95
2022-10-14T03:32:21.970Z,26.90
2022-10-14T03:34:48.715Z,22.02
2022-10-14T03:37:15.101Z,25.50
2022-10-14T03:39:41.508Z,24.15
2022-10-14T03:42:07.899Z,22.17
2022-10-14T03:44:34.271Z,22.90
2022-10-14T03:47:00.612Z,24.58
2022-10-14T03:49:27.076Z,23.90
2022-10-14T03:51:53.408Z,24.33
2022-10-14T03:54:19.705Z,23.67
2022-10-14T03:56:46.043Z,23.75
2022-10-14T03:59:12.517Z,24.15
2022-10-14T04:01:38.952Z,22.38
2022-10-14T04:04:05.462Z,24.30
2022-10-14T04:06:31.775Z,20.30
2022-10-14T04:08:58.106Z,18.70
2022-10-14T04:11:24.459Z,18.65
2022-10-14T04:13:50.792Z,19.75
2022-10-14T04:16:17.120Z,20.27
2022-10-14T04:18:43.489Z,22.50
2022-10-14T04:21:12.177Z,20.50
2022-10-14T04:23:38.774Z,19.30
2022-10-14T04:26:06.576Z,18.13
2022-10-14T04:28:33.832Z,20.75
2022-10-14T04:31:00.464Z,20.85
2022-10-14T04:33:27.086Z,23.17
2022-10-14T04:36:00.905Z,23.50
2022-10-14T04:38:27.659Z,23.42
2022-10-14T04:40:54.171Z,23.58
2022-10-14T04:43:20.801Z,22.83
2022-10-14T04:45:47.447Z,25.13
2022-10-14T04:48:14.240Z,23.38
2022-10-14T04:50:40.579Z,26.25
2022-10-14T04:53:11.934Z,21.20
2022-10-14T04:55:39.740Z,19.65
2022-10-14T04:58:06.103Z,24.75
2022-10-14T05:00:32.538Z,21.48
2022-10-14T05:02:59.055Z,23.00
2022-10-14T05:05:25.391Z,25.85
2022-10-14T05:07:51.912Z,20.73
2022-10-14T05:10:18.312Z,22.70
2022-10-14T05:12:44.706Z,23.65
2022-10-14T05:15:11.680Z,22.85
2022-10-14T05:17:39.193Z,21.17
2022-10-14T05:20:06.694Z,23.50
2022-10-14T05:22:34.097Z,29.52
2022-10-14T05:25:00.418Z,26.90
2022-10-14T05:27:26.792Z,23.48
2022-10-14T05:29:53.115Z,27.55
2022-10-14T05:32:19.742Z,24.80
2022-10-14T05:34:46.397Z,27.83
2022-10-14T05:37:12.743Z,24.48
2022-10-14T05:39:39.078Z,26.65
2022-10-14T05:42:05.560Z,29.20
2022-10-14T05:44:31.904Z,27.55
2022-10-14T05:46:58.231Z,25.80
2022-10-14T05:49:24.611Z,26.98
2022-10-14T05:51:50.992Z,28.95
2022-10-14T05:54:17.303Z,27.95
2022-10-14T05:56:47.000Z,29.63
2022-10-14T05:59:13.416Z,25.23
2022-10-14T06:01:40.043Z,24.70
2022-10-14T06:04:06.447Z,29.15
2022-10-14T06:06:32.820Z,24.88
2022-10-14T06:08:59.197Z,21.17
2022-10-14T06:11:25.523Z,24.83
2022-10-14T06:13:52.467Z,24.70
2022-10-14T06:16:18.874Z,25.10
2022-10-14T06:18:45.188Z,20.98
2022-10-14T06:21:12.443Z,29.38
2022-10-14T06:23:38.771Z,25.85
2022-10-14T06:26:06.375Z,22.60
2022-10-14T06:28:32.990Z,24.45
2022-10-14T06:30:59.543Z,22.77
2022-10-14T06:33:28.399Z,28.70
2022-10-14T06:35:54.739Z,25.67
2022-10-14T06:38:21.066Z,26.48
2022-10-14T06:40:53.123Z,29.70
2022-10-14T06:43:20.467Z,27.23
2022-10-14T06:45:47.561Z,30.70
2022-10-14T06:48:13.934Z,25.58
2022-10-14T06:50:40.679Z,24.73
2022-10-14T06:53:07.281Z,29.90
2022-10-14T06:55:33.652Z,25.10
2022-10-14T06:58:00.009Z,23.63
2022-10-14T07:00:26.511Z,28.75
2022-10-14T07:02:52.834Z,28.02
2022-10-14T07:05:19.157Z,26.48
2022-10-14T07:07:45.490Z,24.73
2022-10-14T07:10:12.017Z,26.20
2022-10-14T07:12:38.330Z,27.70
2022-10-14T07:15:05.139Z,34.67
2022-10-14T07:17:31.632Z,24.70
2022-10-14T07:19:58.011Z,27.95
2022-10-14T07:22:24.868Z,31.67
2022-10-14T07:24:51.343Z,23.55
2022-10-14T07:27:18.228Z,28.65
2022-10-14T07:29:44.718Z,28.20
2022-10-14T07:32:11.042Z,27.40
2022-10-14T07:34:37.441Z,26.50
2022-10-14T07:37:04.113Z,30.85
2022-10-14T07:39:30.634Z,27.63
2022-10-14T07:41:56.969Z,23.25
2022-10-14T07:44:26.530Z,22.65
2022-10-14T07:46:53.855Z,28.75
2022-10-14T07:49:21.480Z,25.58
2022-10-14T07:51:48.499Z,30.25
2022-10-14T07:54:17.505Z,27.63
2022-10-14T07:56:44.643Z,23.27
2022-10-14T07:59:11.385Z,25.65
2022-10-14T08:01:37.862Z,27.85
2022-10-14T08:04:04.630Z,33.35
2022-10-14T08:06:31.098Z,28.05
2022-10-14T08:08:57.431Z,25.73
2022-10-14T08:11:26.170Z,31.77
2022-10-14T08:13:53.399Z,26.42
2022-10-14T08:16:33.642Z,27.42
2022-10-14T08:19:03.184Z,28.27
2022-10-14T08:21:29.551Z,31.73
2022-10-14T08:23:56.102Z,25.83
2022-10-14T08:26:28.004Z,26.40
2022-10-14T08:28:54.634Z,28.85
2022-10-14T08:31:21.548Z,27.63
2022-10-14T08:33:48.104Z,30.52
2022-10-14T08:36:15.411Z,32.10
2022-10-14T08:38:41.833Z,30.90
2022-10-14T08:41:25.880Z,34.60
2022-10-14T08:44:08.791Z,30.95
2022-10-14T08:46:45.764Z,36.08
2022-10-14T08:49:27.483Z,34.15
2022-10-14T08:51:59.264Z,28.50
2022-10-14T08:54:36.302Z,32.67
2022-10-14T08:57:04.347Z,34.90
2022-10-14T08:59:33.565Z,31.20
2022-10-14T09:02:14.717Z,31.70
2022-10-14T09:04:41.039Z,29.42
2022-10-14T09:07:12.203Z,31.02
2022-10-14T09:09:44.071Z,28.42
2022-10-14T09:12:17.633Z,30.42
2022-10-14T09:14:54.559Z,32.45
2022-10-14T09:17:27.656Z,31.48
2022-10-14T09:20:00.762Z,31.23
2022-10-14T09:22:27.246Z,30.38
2022-10-14T09:24:53.595Z,30.80
2022-10-14T09:27:22.097Z,29.33
2022-10-14T09:29:50.282Z,32.20
2022-10-14T09:32:21.206Z,29.63
2022-10-14T09:34:49.598Z,29.17
2022-10-14T09:37:33.424Z,25.17
2022-10-14T09:40:12.904Z,32.63
2022-10-14T09:42:53.091Z,24.77
2022-10-14T09:45:24.488Z,24.60
2022-10-14T09:47:57.026Z,22.73
2022-10-14T09:50:36.685Z,21.98
2022-10-14T09:53:17.862Z,27.38
2022-10-14T09:55:48.796Z,23.15
2022-10-14T09:58:18.053Z,23.65
2022-10-14T10:00:45.793Z,22.30
2022-10-14T10:03:29.466Z,22.67
2022-10-14T10:06:00.892Z,26.53
2022-10-14T10:08:27.686Z,21.08
2022-10-14T10:11:13.582Z,22.70
2022-10-14T10:13:45.314Z,22.98
2022-10-14T10:16:31.206Z,26.63
2022-10-14T10:19:00.304Z,27.77
2022-10-14T10:21:30.330Z,21.60
2022-10-14T10:23:59.433Z,23.67
2022-10-14T10:26:32.864Z,24.45
2022-10-14T10:29:04.835Z,21.00
2022-10-14T10:31:37.859Z,19.67
2022-10-14T10:34:41.228Z,21.17
2022-10-14T10:37:23.371Z,22.00
2022-10-14T10:40:21.190Z,20.65
2022-10-14T10:42:57.269Z,20.00
2022-10-14T10:45:42.590Z,19.75
2022-10-14T10:48:14.573Z,20.65
2022-10-14T10:50:43.529Z,22.10
2022-10-14T10:53:20.174Z,21.90
2022-10-14T10:55:56.202Z,17.30
2022-10-14T10:58:34.294Z,19.23
2022-10-14T11:01:31.514Z,18.90
2022-10-14T11:04:16.574Z,18.55
2022-10-14T11:07:33.087Z,17.17
2022-10-14T11:10:22.296Z,14.60
2022-10-14T11:12:56.981Z,22.38
2022-10-14T11:15:31.087Z,19.25
2022-10-14T11:18:03.960Z,18.98
2022-10-14T11:20:41.950Z,17.33
2022-10-14T11:23:20.201Z,15.05
2022-10-14T11:26:03.985Z,15.32
2022-10-14T11:28:53.711Z,13.33
2022-10-14T11:31:59.706Z,17.10
2022-10-14T11:34:43.775Z,16.83
2022-10-14T11:37:25.218Z,16.15
2022-10-14T11:39:58.513Z,13.57
2022-10-14T11:42:38.571Z,16.60
2022-10-14T11:45:07.939Z,15.35
2022-10-14T11:47:35.947Z,13.30
2022-10-14T11:50:10.789Z,15.52
2022-10-14T11:52:44.605Z,14.55
2022-10-14T11:55:16.405Z,17.05
2022-10-14T11:57:47.313Z,15.55
2022-10-14T12:01:09.561Z,15.32
2022-10-14T12:03:58.441Z,16.70
2022-10-14T12:06:44.069Z,15.20
2022-10-14T12:09:22.712Z,15.95
2022-10-14T12:11:52.638Z,15.38
2022-10-14T12:14:43.581Z,14.10
2022-10-14T12:17:30.358Z,13.93
2022-10-14T12:19:57.337Z,11.15
2022-10-14T12:22:27.422Z,13.52
2022-10-14T12:24:55.758Z,15.00
2022-10-14T12:27:25.726Z,14.55
2022-10-14T12:29:52.950Z,12.13
2022-10-14T12:32:28.257Z,15.60
2022-10-14T12:35:01.302Z,14.40
2022-10-14T12:37:37.862Z,12.38
2022-10-14T12:40:07.177Z,12.98
2022-10-14T12:42:42.492Z,13.82
2022-10-14T12:45:21.432Z,13.90
2022-10-14T12:47:48.059Z,10.80
2022-10-14T12:50:14.271Z,10.35
2022-10-14T12:52:41.697Z,12.60
2022-10-14T12:55:22.530Z,10.43
2022-10-14T12:57:57.096Z,12.05
2022-10-14T13:00:23.321Z,12.45
2022-10-14T13:02:51.802Z,10.90
2022-10-14T13:05:40.298Z,11.15
2022-10-14T13:08:12.402Z,12.15
2022-10-14T13:10:44.924Z,12.05
2022-10-14T13:13:40.270Z,14.35
2022-10-14T13:16:10.843Z,14.50
2022-10-14T13:18:42.843Z,10.63
2022-10-14T13:21:10.995Z,9.90
2022-10-14T13:23:41.278Z,14.43
2022-10-14T13:26:10.193Z,13.10
2022-10-14T13:28:49.955Z,12.55
2022-10-14T13:31:36.347Z,13.30
2022-10-14T13:34:12.670Z,13.93
2022-10-14T13:37:16.803Z,11.65
2022-10-14T13:39:45.686Z,13.30
2022-10-14T13:42:29.298Z,15.13
2022-10-14T13:45:03.930Z,14.90
2022-10-14T13:47:30.519Z,14.02
2022-10-14T13:49:56.962Z,15.88
2022-10-14T13:52:25.877Z,14.70
2022-10-14T13:55:13.355Z,12.68
2022-10-14T13:58:07.328Z,14.75
2022-10-14T14:00:40.615Z,14.80
2022-10-14T14:03:28.661Z,11.15
2022-10-14T14:05:55.533Z,12.45
2022-10-14T14:08:42.669Z,15.00
2022-10-14T14:11:35.509Z,13.90
2022-10-14T14:14:16.774Z,13.70
2022-10-14T14:17:04.247Z,13.77
2022-10-14T14:19:36.785Z,11.68
2022-10-14T14:22:24.410Z,11.77
2022-10-14T14:24:51.647Z,13.02
2022-10-14T14:27:23.740Z,12.93
2022-10-14T14:29:51.938Z,13.32
2022-10-14T14:32:23.307Z,12.43
2022-10-14T14:34:50.976Z,14.30
2022-10-14T14:40:32.216Z,12.35
2022-10-14T14:43:00.707Z,12.15
2022-10-14T14:45:41.278Z,13.80
2022-10-14T14:48:07.753Z,12.50
2022-10-14T14:50:40.029Z,12.68
2022-10-14T14:53:17.698Z,11.80
2022-10-14T14:56:00.246Z,13.57
2022-10-14T14:58:36.699Z,12.57
2022-10-14T15:01:03.633Z,12.43
2022-10-14T15:03:33.759Z,10.82
2022-10-14T15:06:04.939Z,12.60
2022-10-14T15:08:34.782Z,14.27
2022-10-14T15:11:01.663Z,11.15
2022-10-14T15:13:43.160Z,12.45
2022-10-14T15:16:09.939Z,13.77
2022-10-14T15:18:37.671Z,11.63
2022-10-14T15:21:05.747Z,13.32
2022-10-14T15:23:48.619Z,13.45
2022-10-14T15:26:22.864Z,14.48
2022-10-14T15:31:35.861Z,11.40
2022-10-14T15:34:02.708Z,13.30
2022-10-14T15:36:31.306Z,15.25
2022-10-14T15:38:58.979Z,12.30
2022-10-14T15:41:25.411Z,15.82
2022-10-14T15:43:51.844Z,14.68
2022-10-14T15:46:37.065Z,13.18
2022-10-14T15:49:05.524Z,19.95
2022-10-14T15:51:31.867Z,15.77
2022-10-14T15:53:58.209Z,16.90
2022-10-14T15:56:24.567Z,14.13
2022-10-14T15:58:50.923Z,13.43
2022-10-14T16:01:20.263Z,13.48
2022-10-14T16:03:49.966Z,15.25
2022-10-14T16:06:16.929Z,17.15
2022-10-14T16:08:43.314Z,17.23
2022-10-14T16:11:30.056Z,15.52
2022-10-14T16:13:56.703Z,13.90
2022-10-14T16:16:47.109Z,14.07
2022-10-14T16:19:13.532Z,15.57
2022-10-14T16:21:40.255Z,15.95
2022-10-14T16:24:07.737Z,19.67
2022-10-14T16:26:34.338Z,17.48
2022-10-14T16:29:03.046Z,14.90
2022-10-14T16:31:29.418Z,16.48
2022-10-14T16:33:55.782Z,21.35
2022-10-14T16:36:23.178Z,13.88
2022-10-14T16:38:49.876Z,14.30
2022-10-14T16:41:16.201Z,14.48
2022-10-14T16:43:42.546Z,16.17
2022-10-14T16:46:11.691Z,14.68
2022-10-14T16:48:41.071Z,14.40
2022-10-14T16:51:07.539Z,14.27
2022-10-14T16:53:48.762Z,14.18
2022-10-14T16:56:35.713Z,11.90
2022-10-14T16:59:02.316Z,14.43
2022-10-14T17:01:29.454Z,15.38
2022-10-14T17:03:56.747Z,13.95
2022-10-14T17:06:24.423Z,12.30
2022-10-14T17:08:51.129Z,12.02
2022-10-14T17:11:17.657Z,14.30
2022-10-14T17:13:44.122Z,10.75
2022-10-14T17:16:10.516Z,10.18
2022-10-14T17:18:37.060Z,12.20
2022-10-14T17:21:06.978Z,11.82
2022-10-14T17:23:34.767Z,11.70
2022-10-14T17:26:02.354Z,12.90
2022-10-14T17:28:30.160Z,12.15
2022-10-14T17:30:57.678Z,13.75
2022-10-14T17:33:26.073Z,14.18
2022-10-14T17:35:59.274Z,12.20
2022-10-14T17:38:26.653Z,14.38
2022-10-14T17:40:53.032Z,11.85
2022-10-14T17:43:20.411Z,13.57
2022-10-14T17:45:46.739Z,11.63
2022-10-14T17:48:13.072Z,10.77
2022-10-14T17:50:39.406Z,18.33
2022-10-14T17:53:05.857Z,15.63
2022-10-14T17:55:35.154Z,12.98
2022-10-14T17:58:01.465Z,11.63
2022-10-14T18:00:28.255Z,14.02
2022-10-14T18:02:54.586Z,12.90
2022-10-14T18:05:20.914Z,12.85
2022-10-14T18:07:47.265Z,13.00
2022-10-14T18:10:14.272Z,15.07
2022-10-14T18:12:41.570Z,15.13
2022-10-14T18:15:08.226Z,14.70
2022-10-14T18:17:36.322Z,16.50
2022-10-14T18:20:05.256Z,13.60
2022-10-14T18:22:32.584Z,15.98
2022-10-14T18:24:59.231Z,13.90
2022-10-14T18:27:26.088Z,18.80
2022-10-14T18:29:52.486Z,14.20
2022-10-14T18:32:18.884Z,14.98
2022-10-14T18:34:45.512Z,14.93
2022-10-14T18:37:11.967Z,14.25
2022-10-14T18:39:38.295Z,15.85
2022-10-14T18:42:04.606Z,17.70
2022-10-14T18:44:30.934Z,14.98
2022-10-14T18:46:57.293Z,16.80
2022-10-14T18:49:23.622Z,15.18
2022-10-14T18:51:50.454Z,14.95
2022-10-14T18:54:19.487Z,17.00
2022-10-14T18:56:46.697Z,17.33
2022-10-14T18:59:16.131Z,18.65
2022-10-14T19:01:42.621Z,17.55
2022-10-14T19:04:12.336Z,18.75
2022-10-14T19:06:38.777Z,16.35
2022-10-14T19:09:05.713Z,18.83
2022-10-14T19:11:33.563Z,15.70
2022-10-14T19:14:03.145Z,13.70
2022-10-14T19:16:31.494Z,13.30
2022-10-14T19:18:59.867Z,12.63
2022-10-14T19:21:29.587Z,13.40
2022-10-14T19:24:00.030Z,13.60
2022-10-14T19:26:30.915Z,13.02
2022-10-14T19:28:58.306Z,13.82
2022-10-14T19:31:26.521Z,14.23
2022-10-14T19:33:53.762Z,12.73
2022-10-14T19:36:21.766Z,13.77
2022-10-14T19:38:52.022Z,17.40
2022-10-14T19:41:18.916Z,13.27
2022-10-14T19:43:45.229Z,12.85
2022-10-14T19:46:13.569Z,12.75
2022-10-14T19:48:40.027Z,12.52
2022-10-14T19:51:10.517Z,12.30
2022-10-14T19:53:38.002Z,11.75
2022-10-14T19:56:09.793Z,10.68
2022-10-14T19:58:39.647Z,10.15
2022-10-14T20:01:09.536Z,10.30
2022-10-14T20:03:36.386Z,11.32
2022-10-14T20:06:03.779Z,8.77
2022-10-14T20:08:30.185Z,8.63
2022-10-14T20:10:56.748Z,9.57
2022-10-14T20:13:23.088Z,9.10
2022-10-14T20:15:54.173Z,10.82
2022-10-14T20:18:20.634Z,9.65
2022-10-14T20:20:46.982Z,9.68
2022-10-14T20:23:13.295Z,10.82
2022-10-14T20:25:41.515Z,10.18
2022-10-14T20:28:08.420Z,9.80
2022-10-14T20:30:34.881Z,10.73
2022-10-14T20:33:01.203Z,10.50
2022-10-14T20:37:58.826Z,10.02
2022-10-14T20:40:25.241Z,9.13
2022-10-14T20:42:52.124Z,8.23
2022-10-14T20:45:18.693Z,8.88
2022-10-14T20:47:52.623Z,8.38
2022-10-14T20:50:20.323Z,8.32
2022-10-14T20:52:46.678Z,8.05
2022-10-14T20:55:13.046Z,7.97
2022-10-14T20:57:39.390Z,8.52
2022-10-14T21:00:07.486Z,8.65
2022-10-14T21:02:34.261Z,8.27
2022-10-14T21:05:00.655Z,7.70
2022-10-14T21:07:26.987Z,6.35
2022-10-14T21:09:53.362Z,5.85
2022-10-14T21:12:19.922Z,5.15
2022-10-14T21:14:46.403Z,6.15
2022-10-14T21:17:12.738Z,5.20
2022-10-14T21:19:39.048Z,5.22
2022-10-14T21:22:05.372Z,4.82
2022-10-14T21:24:31.763Z,3.80
2022-10-14T21:26:58.566Z,4.30
2022-10-14T21:29:26.848Z,4.75
2022-10-14T21:31:53.388Z,4.63
2022-10-14T21:34:19.769Z,4.95
2022-10-14T21:36:46.105Z,5.32
2022-10-14T21:39:16.918Z,4.40
2022-10-14T21:41:43.796Z,4.40
2022-10-14T21:44:14.011Z,4.07
2022-10-14T21:46:40.467Z,4.38
2022-10-14T21:49:08.874Z,4.18
2022-10-14T21:51:35.227Z,4.32
2022-10-14T21:54:01.615Z,4.72
2022-10-14T21:56:28.367Z,3.72
2022-10-14T21:58:55.600Z,3.80
2022-10-14T22:01:26.012Z,4.63
2022-10-14T22:04:00.671Z,4.53
2022-10-14T22:06:27.739Z,4.00
2022-10-14T22:08:56.275Z,8.10
2022-10-14T22:11:28.570Z,4.78
2022-10-14T22:13:56.114Z,5.40
2022-10-14T22:16:23.109Z,5.78
2022-10-14T22:18:50.811Z,6.97
2022-10-14T22:21:20.476Z,6.10
2022-10-14T22:23:47.604Z,6.60
2022-10-14T22:26:16.087Z,6.78
2022-10-14T22:28:42.493Z,7.53
2022-10-14T22:31:14.557Z,7.15
2022-10-14T22:33:41.422Z,7.50
2022-10-14T22:36:13.555Z,7.57
2022-10-14T22:38:41.674Z,8.18
2022-10-14T22:41:08.752Z,7.68
2022-10-14T22:43:35.730Z,7.45
2022-10-14T22:46:03.303Z,6.97
2022-10-14T22:48:30.606Z,8.27
2022-10-14T22:51:01.683Z,7.55
2022-10-14T22:53:28.550Z,7.45
2022-10-14T22:55:55.248Z,7.65
2022-10-14T22:58:21.591Z,9.05
2022-10-14T23:00:47.998Z,8.52
2022-10-14T23:03:14.349Z,9.55
2022-10-14T23:05:40.832Z,9.70
2022-10-14T23:08:11.670Z,10.35
2022-10-14T23:10:38.888Z,9.50
2022-10-14T23:13:05.922Z,10.13
2022-10-14T23:15:32.793Z,8.43
2022-10-14T23:17:59.129Z,9.38
2022-10-14T23:20:25.744Z,9.43
2022-10-14T23:22:52.108Z,8.18
2022-10-14T23:25:18.620Z,7.45
2022-10-14T23:27:44.996Z,8.38
2022-10-14T23:30:11.653Z,9.02
2022-10-14T23:32:38.235Z,9.07
2022-10-14T23:35:04.861Z,7.57
2022-10-14T23:37:31.166Z,7.15
2022-10-14T23:39:57.615Z,6.82
2022-10-14T23:42:23.992Z,8.00
2022-10-14T23:44:50.344Z,8.02
2022-10-14T23:47:16.668Z,7.78
2022-10-14T23:49:43.002Z,7.88
2022-10-14T23:52:09.498Z,7.00
2022-10-14T23:54:36.021Z,7.70
2022-10-14T23:57:02.342Z,7.15
2022-10-14T23:59:28.671Z,7.80
